Time;durP1;ratioP1;P1;durP2;ratioP2;P2;SDS_P1;SDS_P2;PMS_P1;PMS_P2;Temp;Humidity;BMP_temperature;BMP_pressure;BME280_temperature;BME280_humidity;BME280_pressure;Samples;Min_cycle;Max_cycle;Signal;HPM_P1;HPM_P2
2022/04/16 05:13:26;;;;;;;17.00;10.00;;;;;;;;;;5122605;23;20072;-62
2022/04/16 05:15:52;;;;;;;16.13;9.70;;;;;;;;;;4878367;29;20029;-62
2022/04/16 05:18:18;;;;;;;14.88;9.15;;;;;;;;;;4845935;29;20037;-62
2022/04/16 05:20:44;;;;;;;14.25;9.68;;;;;;;;;;4878181;29;20193;-62
2022/04/16 05:23:17;;;;;;;18.52;10.32;;;;;;;;;;4878128;29;20441;-62
2022/04/16 05:25:43;;;;;;;16.60;9.60;;;;;;;;;;4877985;29;20029;-62
2022/04/16 05:28:10;;;;;;;14.25;9.40;;;;;;;;;;4878282;29;20032;-62
2022/04/16 05:30:44;;;;;;;16.90;9.93;;;;;;;;;;4878087;29;20118;-62
2022/04/16 05:35:59;;;;;;;13.73;9.65;;;;;;;;;;4878160;29;20035;-62
2022/04/16 05:38:25;;;;;;;17.20;9.55;;;;;;;;;;4877852;29;20477;-62
2022/04/16 05:40:51;;;;;;;14.88;9.75;;;;;;;;;;4877775;29;20041;-62
2022/04/16 05:43:18;;;;;;;14.20;10.35;;;;;;;;;;4877861;29;20033;-63
2022/04/16 05:45:44;;;;;;;14.85;9.82;;;;;;;;;;4878616;29;20037;-63
2022/04/16 05:48:11;;;;;;;15.98;10.43;;;;;;;;;;4861216;29;20029;-63
2022/04/16 05:50:37;;;;;;;14.85;10.40;;;;;;;;;;4877327;29;20112;-63
2022/04/16 05:53:05;;;;;;;16.23;11.27;;;;;;;;;;4877937;29;20087;-63
2022/04/16 05:55:31;;;;;;;19.20;11.18;;;;;;;;;;4877756;29;20469;-62
2022/04/16 05:57:57;;;;;;;15.40;10.68;;;;;;;;;;4878077;29;20037;-63
2022/04/16 06:00:23;;;;;;;17.25;11.25;;;;;;;;;;4877601;29;20101;-63
2022/04/16 06:02:50;;;;;;;16.85;10.70;;;;;;;;;;4877740;29;20040;-63
2022/04/16 06:05:16;;;;;;;17.02;10.50;;;;;;;;;;4877895;29;20028;-64
2022/04/16 06:07:42;;;;;;;15.88;10.50;;;;;;;;;;4877714;29;20032;-62
2022/04/16 06:10:09;;;;;;;15.90;10.60;;;;;;;;;;4877565;29;20033;-62
2022/04/16 06:12:35;;;;;;;16.02;10.85;;;;;;;;;;4869617;29;20056;-61
2022/04/16 06:15:01;;;;;;;17.35;11.73;;;;;;;;;;4859031;29;20118;-62
2022/04/16 06:17:27;;;;;;;16.33;11.77;;;;;;;;;;4859031;29;20025;-62
2022/04/16 06:19:53;;;;;;;20.45;11.27;;;;;;;;;;4858634;29;20033;-62
2022/04/16 06:22:20;;;;;;;18.90;11.20;;;;;;;;;;4841576;29;20041;-65
2022/04/16 06:24:46;;;;;;;20.45;11.35;;;;;;;;;;4841383;29;20057;-62
2022/04/16 06:27:12;;;;;;;18.52;11.52;;;;;;;;;;4858312;29;20037;-62
2022/04/16 06:29:39;;;;;;;17.17;11.35;;;;;;;;;;4857403;29;20029;-62
2022/04/16 06:32:05;;;;;;;18.30;10.80;;;;;;;;;;4857349;29;20498;-62
2022/04/16 06:34:31;;;;;;;16.40;11.30;;;;;;;;;;4857387;29;20026;-62
2022/04/16 06:36:57;;;;;;;15.70;9.73;;;;;;;;;;4857071;29;20050;-62
2022/04/16 06:39:23;;;;;;;16.77;9.90;;;;;;;;;;4840315;29;20034;-62
2022/04/16 06:41:50;;;;;;;16.08;9.80;;;;;;;;;;4857002;29;20406;-62
2022/04/16 06:44:16;;;;;;;12.13;9.55;;;;;;;;;;4863687;29;20033;-62
2022/04/16 06:46:42;;;;;;;14.52;9.85;;;;;;;;;;4870577;29;20041;-62
2022/04/16 06:49:08;;;;;;;15.13;9.70;;;;;;;;;;4866790;29;20109;-62
2022/04/16 06:51:34;;;;;;;13.27;9.05;;;;;;;;;;4865533;29;20537;-63
2022/04/16 06:54:00;;;;;;;16.90;9.13;;;;;;;;;;4866786;29;20036;-64
2022/04/16 06:56:27;;;;;;;11.18;8.30;;;;;;;;;;4867012;29;20029;-62
2022/04/16 06:58:55;;;;;;;15.10;7.97;;;;;;;;;;4863477;29;20040;-62
2022/04/16 07:01:21;;;;;;;10.57;7.65;;;;;;;;;;4867680;29;20061;-62
2022/04/16 07:03:47;;;;;;;12.38;8.07;;;;;;;;;;4870642;29;20358;-63
2022/04/16 07:06:13;;;;;;;9.85;7.88;;;;;;;;;;4862218;29;20435;-63
2022/04/16 07:08:39;;;;;;;12.23;7.57;;;;;;;;;;4862013;29;20393;-63
2022/04/16 07:11:05;;;;;;;9.13;6.82;;;;;;;;;;4861467;29;20133;-63
2022/04/16 07:13:31;;;;;;;10.13;7.38;;;;;;;;;;4861504;29;20084;-64
2022/04/16 07:15:57;;;;;;;10.85;7.50;;;;;;;;;;4862652;29;20037;-63
2022/04/16 07:18:24;;;;;;;10.43;7.35;;;;;;;;;;4868442;29;20037;-62
2022/04/16 07:20:50;;;;;;;11.13;7.43;;;;;;;;;;4876126;29;20037;-62
2022/04/16 07:23:16;;;;;;;10.23;7.47;;;;;;;;;;4871078;29;20056;-63
2022/04/16 07:25:42;;;;;;;12.20;7.70;;;;;;;;;;4868059;29;20105;-64
2022/04/16 07:28:08;;;;;;;11.93;8.90;;;;;;;;;;4861612;29;20030;-62
2022/04/16 07:30:34;;;;;;;11.55;8.30;;;;;;;;;;4861623;29;20026;-65
2022/04/16 07:33:00;;;;;;;11.02;8.95;;;;;;;;;;4861321;29;20064;-64
2022/04/16 07:35:26;;;;;;;12.95;9.05;;;;;;;;;;4864643;29;20481;-63
2022/04/16 07:37:57;;;;;;;12.95;9.25;;;;;;;;;;4879757;29;20033;-64
2022/04/16 07:40:23;;;;;;;12.70;9.07;;;;;;;;;;4880069;29;20040;-63
2022/04/16 07:42:49;;;;;;;12.82;9.13;;;;;;;;;;4879808;29;20068;-63
2022/04/16 07:45:15;;;;;;;22.27;10.13;;;;;;;;;;4879543;29;20033;-64
2022/04/16 07:47:41;;;;;;;14.48;8.68;;;;;;;;;;4879578;29;20468;-64
2022/04/16 07:50:08;;;;;;;15.82;9.88;;;;;;;;;;4879466;29;20128;-62
2022/04/16 07:52:34;;;;;;;14.00;9.93;;;;;;;;;;4870180;29;20033;-62
2022/04/16 07:55:00;;;;;;;20.63;10.35;;;;;;;;;;4860711;29;20034;-66
2022/04/16 07:57:26;;;;;;;16.23;9.73;;;;;;;;;;4861496;29;20037;-71
2022/04/16 07:59:54;;;;;;;14.45;9.40;;;;;;;;;;4879673;29;20081;-62
2022/04/16 08:02:20;;;;;;;12.98;8.25;;;;;;;;;;4875434;29;20033;-64
2022/04/16 08:04:46;;;;;;;11.45;8.93;;;;;;;;;;4874625;29;20044;-62
2022/04/16 08:07:12;;;;;;;12.52;7.82;;;;;;;;;;4863596;29;20029;-62
2022/04/16 08:09:38;;;;;;;13.52;8.50;;;;;;;;;;4863388;29;20066;-62
2022/04/16 08:12:05;;;;;;;13.75;8.85;;;;;;;;;;4869415;29;20037;-62
2022/04/16 08:14:31;;;;;;;14.02;8.77;;;;;;;;;;4867960;29;20029;-62
2022/04/16 08:16:57;;;;;;;14.20;9.20;;;;;;;;;;4872187;29;21284;-62
2022/04/16 08:19:23;;;;;;;13.30;8.85;;;;;;;;;;4854034;29;20037;-63
2022/04/16 08:21:49;;;;;;;12.77;9.50;;;;;;;;;;4869785;29;20037;-63
2022/04/16 08:26:57;;;;;;;15.60;10.48;;;;;;;;;;4875345;29;20037;-63
2022/04/16 08:29:23;;;;;;;12.93;9.20;;;;;;;;;;4866742;29;20044;-64
2022/04/16 08:31:52;;;;;;;15.32;9.63;;;;;;;;;;4868663;29;20506;-62
2022/04/16 08:34:18;;;;;;;14.65;9.65;;;;;;;;;;4872037;29;20037;-64
2022/04/16 08:36:44;;;;;;;12.77;9.40;;;;;;;;;;4863789;29;20039;-64
2022/04/16 08:39:10;;;;;;;16.15;9.35;;;;;;;;;;4878665;29;20100;-62
2022/04/16 08:41:37;;;;;;;16.67;10.13;;;;;;;;;;4869960;29;20513;-63
2022/04/16 08:44:03;;;;;;;14.90;9.60;;;;;;;;;;4871308;29;20062;-63
2022/04/16 08:46:32;;;;;;;15.05;9.80;;;;;;;;;;4863384;29;20057;-62
2022/04/16 08:48:58;;;;;;;20.98;12.18;;;;;;;;;;4874832;29;20026;-63
2022/04/16 08:51:26;;;;;;;15.30;9.68;;;;;;;;;;4865879;29;20033;-63
2022/04/16 08:53:52;;;;;;;14.88;10.05;;;;;;;;;;4868239;29;20041;-63
2022/04/16 08:56:18;;;;;;;14.30;9.50;;;;;;;;;;4873175;29;20033;-59
2022/04/16 08:58:44;;;;;;;15.85;9.30;;;;;;;;;;4862758;29;20025;-62
2022/04/16 09:01:10;;;;;;;16.63;10.32;;;;;;;;;;4873794;29;20392;-60
2022/04/16 09:03:38;;;;;;;14.30;8.52;;;;;;;;;;4867130;29;20108;-59
2022/04/16 09:06:04;;;;;;;13.18;9.75;;;;;;;;;;4866912;29;20100;-60
2022/04/16 09:08:31;;;;;;;19.70;12.23;;;;;;;;;;4878078;29;20172;-60
2022/04/16 09:11:07;;;;;;;16.88;11.35;;;;;;;;;;4864168;29;20033;-60
2022/04/16 09:13:33;;;;;;;18.52;11.18;;;;;;;;;;4874115;29;20140;-60
2022/04/16 09:16:03;;;;;;;21.33;12.65;;;;;;;;;;4865374;29;20029;-60
2022/04/16 09:18:29;;;;;;;16.60;10.70;;;;;;;;;;4868843;29;20847;-61
2022/04/16 09:20:55;;;;;;;17.73;11.48;;;;;;;;;;4878899;29;20056;-61
2022/04/16 09:23:22;;;;;;;18.45;11.18;;;;;;;;;;4877835;29;20022;-61
2022/04/16 09:25:49;;;;;;;20.33;11.98;;;;;;;;;;4877929;29;20033;-60
2022/04/16 09:28:17;;;;;;;21.23;13.25;;;;;;;;;;4877936;29;20021;-61
2022/04/16 09:30:50;;;;;;;24.08;13.15;;;;;;;;;;4878236;29;20048;-60
2022/04/16 09:33:16;;;;;;;35.15;19.00;;;;;;;;;;4877965;29;20070;-60
2022/04/16 09:35:42;;;;;;;17.58;10.20;;;;;;;;;;4878106;29;20033;-60
2022/04/16 09:38:08;;;;;;;18.10;12.10;;;;;;;;;;4877825;29;20043;-61
2022/04/16 09:40:35;;;;;;;17.33;11.27;;;;;;;;;;4877630;29;20033;-61
2022/04/16 09:43:03;;;;;;;20.10;13.30;;;;;;;;;;4877525;29;20296;-60
2022/04/16 09:45:29;;;;;;;19.75;13.27;;;;;;;;;;4877385;29;20378;-61
2022/04/16 09:47:56;;;;;;;15.88;10.73;;;;;;;;;;4877404;29;20029;-61
2022/04/16 09:50:25;;;;;;;13.77;10.98;;;;;;;;;;4877590;29;20040;-60
2022/04/16 09:52:55;;;;;;;16.45;11.02;;;;;;;;;;4877561;29;20029;-61
2022/04/16 09:55:22;;;;;;;15.57;10.88;;;;;;;;;;4877553;29;20029;-60
2022/04/16 09:57:57;;;;;;;13.68;10.82;;;;;;;;;;4877244;29;20025;-60
2022/04/16 10:00:23;;;;;;;14.63;9.52;;;;;;;;;;4876975;29;20548;-61
2022/04/16 10:02:49;;;;;;;17.45;11.80;;;;;;;;;;4877205;29;20067;-61
2022/04/16 10:05:16;;;;;;;14.45;10.45;;;;;;;;;;4877303;29;20451;-60
2022/04/16 10:07:46;;;;;;;15.93;11.05;;;;;;;;;;4877292;29;20393;-61
2022/04/16 10:10:18;;;;;;;15.93;11.68;;;;;;;;;;4877518;29;20089;-61
2022/04/16 10:13:01;;;;;;;15.30;11.57;;;;;;;;;;4877234;29;20057;-60
2022/04/16 10:15:39;;;;;;;18.30;12.15;;;;;;;;;;4877241;29;20414;-60
2022/04/16 10:18:05;;;;;;;15.15;11.55;;;;;;;;;;4877218;29;20551;-61
2022/04/16 10:20:31;;;;;;;16.67;11.50;;;;;;;;;;4877045;29;20084;-61
2022/04/16 10:23:03;;;;;;;15.93;12.07;;;;;;;;;;4877342;29;20040;-61
2022/04/16 10:25:30;;;;;;;15.23;11.90;;;;;;;;;;4877074;29;20028;-60
2022/04/16 10:28:00;;;;;;;15.45;11.70;;;;;;;;;;4877276;29;20033;-61
2022/04/16 10:30:35;;;;;;;17.05;11.50;;;;;;;;;;4877427;29;20501;-61
2022/04/16 10:33:03;;;;;;;20.20;12.00;;;;;;;;;;4877127;29;20104;-61
2022/04/16 10:35:29;;;;;;;17.20;10.85;;;;;;;;;;4860257;29;20465;-60
2022/04/16 10:37:56;;;;;;;16.27;11.60;;;;;;;;;;4877240;29;20041;-61
2022/04/16 10:40:23;;;;;;;14.93;10.80;;;;;;;;;;4876931;29;20045;-61
2022/04/16 10:42:51;;;;;;;14.68;11.88;;;;;;;;;;4860585;29;20390;-61
2022/04/16 10:45:17;;;;;;;14.45;11.73;;;;;;;;;;4877145;29;20093;-61
2022/04/16 10:47:44;;;;;;;17.65;12.55;;;;;;;;;;4877049;29;20033;-60
2022/04/16 10:50:19;;;;;;;15.68;11.60;;;;;;;;;;4877202;29;20033;-61
2022/04/16 10:52:53;;;;;;;14.40;10.23;;;;;;;;;;4876971;29;20029;-60
2022/04/16 10:55:27;;;;;;;16.35;11.70;;;;;;;;;;4877007;29;20033;-60
2022/04/16 10:57:57;;;;;;;15.50;11.57;;;;;;;;;;4876002;29;20025;-60
2022/04/16 11:00:34;;;;;;;14.15;10.15;;;;;;;;;;4876842;29;20132;-61
2022/04/16 11:03:13;;;;;;;14.98;10.52;;;;;;;;;;4876687;29;20052;-60
2022/04/16 11:05:42;;;;;;;15.13;9.15;;;;;;;;;;4877036;29;20079;-61
2022/04/16 11:08:08;;;;;;;12.02;9.27;;;;;;;;;;4876620;29;20040;-62
2022/04/16 11:10:35;;;;;;;14.13;11.05;;;;;;;;;;4876801;29;20033;-60
2022/04/16 11:13:01;;;;;;;14.70;10.23;;;;;;;;;;4876651;29;20056;-61
2022/04/16 11:15:28;;;;;;;19.60;9.90;;;;;;;;;;4876893;29;20381;-60
2022/04/16 11:17:57;;;;;;;16.23;11.50;;;;;;;;;;4876488;29;20362;-60
2022/04/16 11:20:23;;;;;;;18.20;10.55;;;;;;;;;;4876828;29;20041;-60
2022/04/16 11:22:49;;;;;;;14.18;10.43;;;;;;;;;;4876606;29;20040;-61
2022/04/16 11:25:15;;;;;;;15.18;10.35;;;;;;;;;;4876403;29;20440;-60
2022/04/16 11:35:57;;;;;;;14.63;10.07;;;;;;;;;;4876887;29;20052;-61
2022/04/16 11:38:31;;;;;;;12.30;9.18;;;;;;;;;;4876942;29;20112;-60
2022/04/16 11:41:01;;;;;;;11.55;8.77;;;;;;;;;;4876200;29;20128;-60
2022/04/16 11:43:30;;;;;;;11.30;8.27;;;;;;;;;;4876248;29;20077;-61
2022/04/16 11:45:56;;;;;;;9.23;6.47;;;;;;;;;;4876397;29;20032;-60
2022/04/16 11:48:22;;;;;;;11.60;6.80;;;;;;;;;;4878507;29;20026;-60
2022/04/16 11:50:49;;;;;;;12.25;6.72;;;;;;;;;;4879693;29;20089;-60
2022/04/16 11:53:15;;;;;;;10.32;6.05;;;;;;;;;;4879502;29;20039;-61
2022/04/16 11:55:45;;;;;;;9.15;5.90;;;;;;;;;;4879819;29;20032;-61
2022/04/16 11:58:11;;;;;;;7.20;5.35;;;;;;;;;;4879621;29;20028;-61
2022/04/16 12:00:47;;;;;;;7.38;4.45;;;;;;;;;;4879482;29;20047;-61
2022/04/16 12:03:14;;;;;;;6.63;4.30;;;;;;;;;;4879837;29;20469;-61
2022/04/16 12:05:42;;;;;;;5.97;3.67;;;;;;;;;;4879593;29;20481;-61
2022/04/16 12:08:09;;;;;;;6.47;3.53;;;;;;;;;;4879997;29;20388;-61
2022/04/16 12:10:36;;;;;;;7.50;5.32;;;;;;;;;;4879563;29;20481;-60
2022/04/16 12:13:09;;;;;;;6.20;3.50;;;;;;;;;;4879010;29;20071;-60
2022/04/16 12:15:39;;;;;;;5.68;3.17;;;;;;;;;;4879773;29;20025;-62
2022/04/16 12:18:09;;;;;;;7.38;3.55;;;;;;;;;;4879295;29;20029;-60
2022/04/16 12:20:40;;;;;;;3.90;3.13;;;;;;;;;;4878993;29;20037;-60
2022/04/16 12:23:10;;;;;;;5.55;3.10;;;;;;;;;;4878072;29;20056;-60
2022/04/16 12:25:37;;;;;;;6.28;3.03;;;;;;;;;;4878874;29;20034;-60
2022/04/16 12:28:03;;;;;;;4.82;2.70;;;;;;;;;;4878888;29;20634;-60
2022/04/16 12:30:33;;;;;;;5.15;2.40;;;;;;;;;;4878914;29;20028;-61
2022/04/16 12:33:12;;;;;;;6.20;2.88;;;;;;;;;;4878821;29;20546;-60
2022/04/16 12:35:48;;;;;;;4.30;2.75;;;;;;;;;;4878974;29;20061;-59
2022/04/16 12:38:15;;;;;;;5.47;3.10;;;;;;;;;;4878854;29;20032;-60
2022/04/16 12:40:42;;;;;;;7.55;3.80;;;;;;;;;;4869503;29;20046;-60
2022/04/16 12:43:08;;;;;;;8.40;3.78;;;;;;;;;;4864409;29;20403;-64
2022/04/16 12:45:35;;;;;;;6.35;4.30;;;;;;;;;;4868018;29;20536;-58
2022/04/16 12:48:01;;;;;;;6.55;3.70;;;;;;;;;;4868951;29;20446;-58
2022/04/16 12:50:29;;;;;;;8.32;3.45;;;;;;;;;;4868092;29;20473;-58
2022/04/16 12:52:56;;;;;;;5.82;3.03;;;;;;;;;;4867262;29;20038;-58
2022/04/16 12:55:22;;;;;;;5.82;2.63;;;;;;;;;;4873501;29;20075;-59
2022/04/16 12:57:48;;;;;;;5.72;2.95;;;;;;;;;;4864974;29;20079;-58
2022/04/16 13:00:15;;;;;;;3.90;3.00;;;;;;;;;;4842360;29;20033;-58
2022/04/16 13:02:44;;;;;;;5.55;3.22;;;;;;;;;;4840874;29;20033;-59
2022/04/16 13:05:10;;;;;;;5.85;3.20;;;;;;;;;;4840989;29;20406;-58
2022/04/16 13:07:37;;;;;;;5.70;3.72;;;;;;;;;;4841272;29;20037;-59
2022/04/16 13:10:07;;;;;;;8.88;5.82;;;;;;;;;;4845705;29;20834;-58
2022/04/16 13:12:36;;;;;;;6.57;3.60;;;;;;;;;;4868360;29;20064;-59
2022/04/16 13:15:02;;;;;;;6.10;3.47;;;;;;;;;;4867631;29;20097;-59
2022/04/16 13:17:28;;;;;;;4.30;3.05;;;;;;;;;;4866997;29;20043;-59
2022/04/16 13:19:54;;;;;;;6.15;3.25;;;;;;;;;;4867843;29;20044;-58
2022/04/16 13:22:21;;;;;;;7.03;3.50;;;;;;;;;;4859372;29;20030;-63
2022/04/16 13:24:47;;;;;;;4.95;3.15;;;;;;;;;;4859576;29;20036;-63
2022/04/16 13:27:13;;;;;;;5.32;3.00;;;;;;;;;;4859431;29;20039;-63
2022/04/16 13:29:39;;;;;;;8.77;3.63;;;;;;;;;;4859481;29;20048;-63
2022/04/16 13:32:05;;;;;;;5.82;3.72;;;;;;;;;;4859531;29;20029;-63
2022/04/16 13:34:32;;;;;;;7.70;3.60;;;;;;;;;;4859340;29;20437;-63
2022/04/16 13:36:58;;;;;;;6.85;4.20;;;;;;;;;;4859179;29;20033;-63
2022/04/16 13:42:09;;;;;;;6.03;3.75;;;;;;;;;;4858778;29;20409;-64
2022/04/16 13:44:36;;;;;;;7.55;3.90;;;;;;;;;;4841954;29;20770;-64
2022/04/16 13:47:02;;;;;;;3.75;2.80;;;;;;;;;;4859068;29;20060;-64
2022/04/16 13:49:29;;;;;;;6.20;3.15;;;;;;;;;;4859094;29;20101;-64
2022/04/16 13:51:55;;;;;;;4.88;3.78;;;;;;;;;;4858969;29;20042;-63
2022/04/16 13:54:21;;;;;;;10.85;4.18;;;;;;;;;;4859149;29;20061;-63
2022/04/16 13:56:47;;;;;;;5.30;3.83;;;;;;;;;;4858686;29;20041;-63
2022/04/16 13:59:15;;;;;;;7.00;4.18;;;;;;;;;;4862776;29;20034;-63
2022/04/16 14:01:42;;;;;;;6.05;3.85;;;;;;;;;;4868921;29;20037;-63
2022/04/16 14:04:08;;;;;;;8.27;4.00;;;;;;;;;;4877657;29;20029;-64
2022/04/16 14:06:34;;;;;;;7.57;4.10;;;;;;;;;;4874365;29;20451;-64
2022/04/16 14:09:00;;;;;;;5.50;3.78;;;;;;;;;;4862614;29;20080;-65
2022/04/16 14:11:27;;;;;;;7.18;4.55;;;;;;;;;;4862487;29;20037;-64
2022/04/16 14:13:53;;;;;;;5.70;4.28;;;;;;;;;;4865105;29;20049;-63
2022/04/16 14:16:19;;;;;;;4.60;3.80;;;;;;;;;;4858800;29;20026;-63
2022/04/16 14:18:46;;;;;;;8.02;4.25;;;;;;;;;;4858537;29;20398;-62
2022/04/16 14:21:12;;;;;;;10.77;4.05;;;;;;;;;;4858477;29;20037;-62
2022/04/16 14:23:39;;;;;;;6.05;3.95;;;;;;;;;;4858026;29;20253;-62
2022/04/16 14:26:05;;;;;;;10.90;3.70;;;;;;;;;;4858289;29;20037;-63
2022/04/16 14:28:35;;;;;;;6.03;3.75;;;;;;;;;;4858381;29;20501;-63
2022/04/16 14:31:01;;;;;;;7.20;4.10;;;;;;;;;;4857814;29;20406;-63
2022/04/16 14:33:28;;;;;;;7.38;5.05;;;;;;;;;;4858053;29;20026;-62
2022/04/16 14:35:54;;;;;;;8.50;5.07;;;;;;;;;;4858148;29;20501;-62
2022/04/16 14:38:21;;;;;;;9.05;4.80;;;;;;;;;;4858371;29;20041;-62
2022/04/16 14:40:47;;;;;;;7.43;4.93;;;;;;;;;;4858156;29;20526;-62
2022/04/16 14:43:13;;;;;;;8.70;5.15;;;;;;;;;;4858123;29;20036;-62
2022/04/16 14:45:44;;;;;;;8.63;5.40;;;;;;;;;;4858456;29;20584;-63
2022/04/16 14:48:10;;;;;;;7.57;4.85;;;;;;;;;;4858313;29;20022;-63
2022/04/16 14:50:39;;;;;;;8.55;5.00;;;;;;;;;;4858892;29;20389;-62
2022/04/16 14:53:08;;;;;;;7.95;5.00;;;;;;;;;;4858502;29;20424;-65
2022/04/16 14:55:36;;;;;;;7.72;4.63;;;;;;;;;;4858633;29;20029;-62
2022/04/16 14:58:04;;;;;;;7.72;5.10;;;;;;;;;;4858412;29;20025;-62
2022/04/16 15:00:30;;;;;;;9.45;4.43;;;;;;;;;;4858380;29;20097;-63
2022/04/16 15:02:56;;;;;;;7.25;5.03;;;;;;;;;;4858518;29;20407;-62
2022/04/16 15:05:22;;;;;;;6.93;4.60;;;;;;;;;;4858297;29;20026;-63
2022/04/16 15:07:48;;;;;;;6.75;5.28;;;;;;;;;;4858377;29;20037;-62
2022/04/16 15:10:14;;;;;;;7.80;5.50;;;;;;;;;;4858263;29;20037;-62
2022/04/16 15:12:40;;;;;;;8.05;5.30;;;;;;;;;;4857871;29;20117;-64
2022/04/16 15:15:07;;;;;;;7.68;6.00;;;;;;;;;;4858369;29;20048;-63
2022/04/16 15:17:37;;;;;;;11.35;7.28;;;;;;;;;;4858085;29;20037;-64
2022/04/16 15:20:03;;;;;;;7.55;4.57;;;;;;;;;;4857755;29;20086;-65
2022/04/16 15:22:29;;;;;;;7.38;4.50;;;;;;;;;;4866587;29;20036;-63
2022/04/16 15:24:55;;;;;;;6.40;4.22;;;;;;;;;;4861522;29;20033;-63
2022/04/16 15:27:21;;;;;;;5.07;3.53;;;;;;;;;;4861186;29;20054;-62
2022/04/16 15:29:48;;;;;;;8.27;4.85;;;;;;;;;;4861380;29;20033;-63
2022/04/16 15:32:14;;;;;;;6.45;3.75;;;;;;;;;;4861295;29;20037;-62
2022/04/16 15:34:40;;;;;;;7.30;5.15;;;;;;;;;;4861423;29;20496;-63
2022/04/16 15:37:06;;;;;;;8.18;4.68;;;;;;;;;;4861412;29;20080;-64
2022/04/16 15:39:32;;;;;;;8.80;5.20;;;;;;;;;;4861354;29;20032;-62
2022/04/16 15:41:58;;;;;;;8.55;4.25;;;;;;;;;;4860993;29;20109;-63
2022/04/16 15:44:24;;;;;;;7.75;5.03;;;;;;;;;;4861334;29;20316;-65
2022/04/16 15:46:50;;;;;;;8.25;4.53;;;;;;;;;;4861341;29;20116;-64
2022/04/16 15:49:16;;;;;;;7.63;5.40;;;;;;;;;;4861281;29;20057;-61
2022/04/16 15:51:42;;;;;;;10.20;5.90;;;;;;;;;;4861202;29;20378;-67
2022/04/16 15:54:08;;;;;;;6.97;5.07;;;;;;;;;;4872026;29;20033;-67
2022/04/16 15:56:35;;;;;;;8.05;3.83;;;;;;;;;;4869246;29;20093;-63
2022/04/16 15:59:04;;;;;;;6.63;4.68;;;;;;;;;;4865023;29;20393;-64
2022/04/16 16:01:30;;;;;;;7.60;4.55;;;;;;;;;;4866681;29;20044;-67
2022/04/16 16:03:56;;;;;;;7.18;5.03;;;;;;;;;;4866673;29;20045;-64
2022/04/16 16:06:22;;;;;;;10.38;5.10;;;;;;;;;;4866139;29;20040;-63
2022/04/16 16:08:51;;;;;;;8.98;3.15;;;;;;;;;;4866268;29;20112;-64
2022/04/16 16:11:18;;;;;;;5.68;3.10;;;;;;;;;;4872887;29;20508;-66
2022/04/16 16:13:44;;;;;;;5.00;1.98;;;;;;;;;;4879364;29;20465;-67
2022/04/16 16:16:10;;;;;;;6.05;2.55;;;;;;;;;;4875298;29;20038;-64
2022/04/16 16:18:36;;;;;;;5.28;2.03;;;;;;;;;;4860939;29;20093;-63
2022/04/16 16:21:02;;;;;;;5.43;1.92;;;;;;;;;;4860335;29;20042;-64
2022/04/16 16:23:28;;;;;;;5.55;1.88;;;;;;;;;;4860717;29;20057;-62
2022/04/16 16:25:55;;;;;;;2.75;1.80;;;;;;;;;;4860282;29;20052;-62
2022/04/16 16:28:21;;;;;;;13.27;2.45;;;;;;;;;;4860108;29;20028;-63
2022/04/16 16:30:47;;;;;;;4.90;2.85;;;;;;;;;;4860351;29;20036;-63
2022/04/16 16:33:13;;;;;;;6.72;3.03;;;;;;;;;;4859788;29;20474;-62
2022/04/16 16:35:40;;;;;;;3.55;2.25;;;;;;;;;;4860381;29;20530;-62
2022/04/16 16:38:06;;;;;;;8.30;3.03;;;;;;;;;;4860538;29;20189;-63
2022/04/16 16:40:33;;;;;;;5.20;3.08;;;;;;;;;;4860446;29;20038;-66
2022/04/16 16:42:59;;;;;;;4.93;2.55;;;;;;;;;;4860347;29;20517;-63
2022/04/16 16:45:25;;;;;;;4.68;2.53;;;;;;;;;;4860260;29;20041;-63
2022/04/16 16:47:51;;;;;;;5.97;3.33;;;;;;;;;;4859562;29;20033;-68
2022/04/16 16:50:18;;;;;;;5.43;2.80;;;;;;;;;;4860492;29;20038;-69
2022/04/16 16:52:44;;;;;;;4.97;2.67;;;;;;;;;;4860074;29;20018;-63
2022/04/16 16:55:11;;;;;;;3.42;2.35;;;;;;;;;;4860021;29;20041;-67
2022/04/16 16:57:38;;;;;;;5.45;2.83;;;;;;;;;;4860071;29;20481;-64
2022/04/16 17:00:05;;;;;;;4.22;3.00;;;;;;;;;;4859932;29;20485;-62
2022/04/16 17:05:16;;;;;;;7.35;3.70;;;;;;;;;;4859428;29;20140;-64
2022/04/16 17:07:42;;;;;;;8.48;3.25;;;;;;;;;;4859727;29;20033;-65
2022/04/16 17:10:13;;;;;;;4.43;2.85;;;;;;;;;;4859545;29;20029;-63
2022/04/16 17:12:39;;;;;;;6.82;3.88;;;;;;;;;;4859427;29;20410;-64
2022/04/16 17:20:36;;;;;;;4.55;2.70;;;;;;;;;;4866393;29;20092;-62
2022/04/16 17:23:03;;;;;;;2.20;1.08;;;;;;;;;;4868851;29;20509;-63
2022/04/16 17:25:31;;;;;;;5.82;2.85;;;;;;;;;;4867371;29;20029;-61
2022/04/16 17:27:58;;;;;;;4.68;2.38;;;;;;;;;;4867682;29;20037;-60
2022/04/16 17:30:24;;;;;;;6.47;2.58;;;;;;;;;;4870038;29;20036;-62
2022/04/16 17:32:50;;;;;;;4.30;2.40;;;;;;;;;;4873118;29;20053;-62
2022/04/16 17:35:17;;;;;;;7.22;2.65;;;;;;;;;;4866406;29;20037;-60
2022/04/16 17:37:44;;;;;;;4.90;1.95;;;;;;;;;;4861513;29;20056;-68
2022/04/16 17:40:10;;;;;;;4.32;2.47;;;;;;;;;;4866834;29;20045;-63
2022/04/16 17:42:37;;;;;;;22.38;11.38;;;;;;;;;;4866841;29;20040;-59
2022/04/16 17:45:03;;;;;;;3.85;2.08;;;;;;;;;;4867795;29;20044;-60
2022/04/16 17:47:29;;;;;;;7.10;2.30;;;;;;;;;;4864236;29;20060;-65
2022/04/16 17:49:56;;;;;;;7.53;4.47;;;;;;;;;;4862384;29;20406;-65
2022/04/16 17:52:22;;;;;;;7.57;5.35;;;;;;;;;;4867846;29;20029;-64
2022/04/16 17:54:48;;;;;;;8.52;5.68;;;;;;;;;;4866156;29;20529;-59
2022/04/16 17:57:14;;;;;;;9.02;4.28;;;;;;;;;;4866860;29;20045;-62
2022/04/16 17:59:40;;;;;;;6.50;3.15;;;;;;;;;;4867513;29;20033;-62
2022/04/16 18:02:08;;;;;;;6.53;3.55;;;;;;;;;;4863446;29;20041;-65
2022/04/16 18:04:35;;;;;;;8.10;2.80;;;;;;;;;;4866510;29;20481;-62
2022/04/16 18:07:01;;;;;;;7.93;3.92;;;;;;;;;;4865950;29;20132;-59
2022/04/16 18:09:27;;;;;;;10.38;4.85;;;;;;;;;;4867634;29;20028;-60
2022/04/16 18:11:53;;;;;;;8.18;4.60;;;;;;;;;;4868187;29;20037;-64
2022/04/16 18:14:20;;;;;;;13.40;6.75;;;;;;;;;;4873510;29;20033;-65
2022/04/16 18:16:47;;;;;;;6.25;3.22;;;;;;;;;;4877220;29;20441;-59
2022/04/16 18:19:13;;;;;;;5.03;2.60;;;;;;;;;;4877043;29;20029;-59
2022/04/16 18:21:39;;;;;;;6.22;3.13;;;;;;;;;;4877179;29;20033;-60
2022/04/16 18:24:07;;;;;;;13.88;7.30;;;;;;;;;;4876672;29;20025;-60
2022/04/16 18:26:34;;;;;;;10.48;3.67;;;;;;;;;;4874229;29;20082;-67
2022/04/16 18:29:02;;;;;;;5.82;2.78;;;;;;;;;;4868516;29;20025;-64
2022/04/16 18:31:28;;;;;;;9.40;4.18;;;;;;;;;;4877172;29;20529;-63
2022/04/16 18:33:54;;;;;;;7.25;3.15;;;;;;;;;;4876701;29;20469;-63
2022/04/16 18:36:21;;;;;;;4.72;3.33;;;;;;;;;;4869514;29;20392;-64
2022/04/16 18:38:48;;;;;;;4.93;2.30;;;;;;;;;;4858331;29;20089;-61
2022/04/16 18:41:14;;;;;;;9.15;3.03;;;;;;;;;;4860067;29;20132;-64
2022/04/16 18:43:40;;;;;;;9.23;4.40;;;;;;;;;;4867429;29;20027;-61
2022/04/16 18:46:07;;;;;;;9.18;3.78;;;;;;;;;;4861189;29;20093;-60
2022/04/16 18:48:33;;;;;;;14.02;6.32;;;;;;;;;;4855855;29;20065;-62
2022/04/16 18:50:59;;;;;;;7.07;3.17;;;;;;;;;;4844958;29;20033;-64
2022/04/16 18:53:25;;;;;;;14.48;5.43;;;;;;;;;;4865268;29;20029;-65
2022/04/16 18:55:56;;;;;;;9.55;4.18;;;;;;;;;;4867078;29;20028;-64
2022/04/16 18:58:22;;;;;;;6.60;2.85;;;;;;;;;;4870203;29;20025;-64
2022/04/16 19:09:06;;;;;;;5.63;3.33;;;;;;;;;;4866813;29;20059;-61
2022/04/16 19:11:32;;;;;;;5.78;2.97;;;;;;;;;;4869476;29;20044;-60
2022/04/16 19:13:59;;;;;;;6.40;3.10;;;;;;;;;;4870150;29;20795;-61
2022/04/16 19:16:25;;;;;;;8.25;3.00;;;;;;;;;;4866364;29;20017;-61
2022/04/16 19:18:51;;;;;;;7.78;3.17;;;;;;;;;;4869536;29;20158;-61
2022/04/16 19:21:17;;;;;;;6.05;3.05;;;;;;;;;;4870331;29;20127;-61
2022/04/16 19:23:43;;;;;;;7.88;3.13;;;;;;;;;;4872381;29;20032;-59
2022/04/16 19:26:09;;;;;;;8.52;3.40;;;;;;;;;;4874897;29;20036;-61
2022/04/16 19:28:35;;;;;;;9.45;3.08;;;;;;;;;;4870353;29;20026;-60
2022/04/16 19:31:03;;;;;;;9.00;3.70;;;;;;;;;;4866550;29;20026;-60
2022/04/16 19:33:29;;;;;;;9.27;3.28;;;;;;;;;;4869421;29;20074;-61
2022/04/16 19:35:55;;;;;;;4.75;2.63;;;;;;;;;;4870313;29;20392;-59
2022/04/16 19:38:21;;;;;;;7.00;2.90;;;;;;;;;;4866251;29;20401;-64
2022/04/16 19:40:47;;;;;;;5.70;2.80;;;;;;;;;;4869571;29;20097;-64
2022/04/16 19:43:13;;;;;;;4.32;2.70;;;;;;;;;;4870246;29;20030;-63
2022/04/16 19:45:39;;;;;;;5.00;2.50;;;;;;;;;;4868814;29;20104;-62
2022/04/16 19:48:07;;;;;;;5.70;2.22;;;;;;;;;;4869375;29;20029;-65
2022/04/16 19:50:33;;;;;;;8.00;2.53;;;;;;;;;;4869860;29;20025;-62
2022/04/16 19:52:59;;;;;;;8.00;2.80;;;;;;;;;;4868209;29;20030;-61
2022/04/16 19:55:25;;;;;;;7.00;3.08;;;;;;;;;;4868249;29;20033;-61
2022/04/16 19:57:52;;;;;;;7.75;3.95;;;;;;;;;;4868792;29;20025;-61
2022/04/16 20:00:18;;;;;;;8.95;2.80;;;;;;;;;;4865450;29;20397;-61
2022/04/16 20:02:44;;;;;;;7.90;2.88;;;;;;;;;;4860809;29;20041;-61
2022/04/16 20:05:10;;;;;;;6.57;2.60;;;;;;;;;;4860884;29;20109;-61
2022/04/16 20:07:36;;;;;;;10.05;3.20;;;;;;;;;;4876548;29;20061;-60
2022/04/16 20:12:50;;;;;;;6.68;2.38;;;;;;;;;;4879091;29;20459;-61
2022/04/16 20:15:16;;;;;;;4.90;2.40;;;;;;;;;;4879050;29;20104;-62
2022/04/16 20:17:42;;;;;;;6.60;2.00;;;;;;;;;;4878946;29;20033;-62
2022/04/16 20:20:09;;;;;;;3.17;0.98;;;;;;;;;;4879091;29;20037;-65